NAVACERRADA, MADRID

latitud = 40° 46' 50''N | longitud = 004° 00' 37''W
1894 metros sobre el nivel del mar | datos mensuales

Fecha, hora, temperatura, viento dirección y velocidad, humedad y presión.

  • 25-09-2017 00:00:00 | 12.70°C | Noroeste |8.00 km/h | 46.00% | 818.90 hPa
  • 24-09-2017 23:00:00 | 13.20°C | Noroeste |9.00 km/h | 45.00% | 819.10 hPa
  • 24-09-2017 22:00:00 | 13.40°C | Oeste |8.00 km/h | 46.00% | 819.00 hPa
  • 24-09-2017 21:00:00 | 14.10°C | Noroeste |8.00 km/h | 49.00% | 818.70 hPa
  • 24-09-2017 20:00:00 | 15.40°C | Sur |15.00 km/h | 46.00% | 818.40 hPa
  • 24-09-2017 19:00:00 | 18.10°C | Sudoeste |12.00 km/h | 42.00% | 818.40 hPa
  • 24-09-2017 18:00:00 | 19.80°C | Sudoeste |11.00 km/h | 39.00% | 818.40 hPa
  • 24-09-2017 17:00:00 | 19.60°C | Sudeste |9.00 km/h | 41.00% | 818.50 hPa
  • 24-09-2017 16:00:00 | 20.40°C | Sudoeste |14.00 km/h | 41.00% | 818.70 hPa
  • 24-09-2017 15:00:00 | 20.00°C | Sudoeste |11.00 km/h | 43.00% | 818.80 hPa
  • 24-09-2017 14:00:00 | 19.30°C | Sur |10.00 km/h | 45.00% | 819.10 hPa
  • 24-09-2017 13:00:00 | 18.90°C | Sur |8.00 km/h | 45.00% | 819.30 hPa
  • 24-09-2017 12:00:00 | 16.80°C | Oeste |6.00 km/h | 50.00% | 819.30 hPa
  • 24-09-2017 11:00:00 | 15.00°C | Oeste |8.00 km/h | 54.00% | 819.30 hPa
  • 24-09-2017 10:00:00 | 12.90°C | Sudoeste |8.00 km/h | 62.00% | 818.90 hPa
  • 24-09-2017 09:00:00 | 11.40°C | Sudoeste |16.00 km/h | 65.00% | 818.10 hPa
  • 24-09-2017 08:00:00 | 11.30°C | Sudoeste |18.00 km/h | 65.00% | 818.00 hPa
  • 24-09-2017 07:00:00 | 11.50°C | Sudoeste |16.00 km/h | 64.00% | 817.80 hPa
  • 24-09-2017 06:00:00 | 11.40°C | Sudoeste |10.00 km/h | 60.00% | 817.90 hPa
  • 24-09-2017 05:00:00 | 11.30°C | Oeste |3.00 km/h | 62.00% | 818.10 hPa
  • 24-09-2017 04:00:00 | 11.30°C | Nordeste |4.00 km/h | 58.00% | 818.40 hPa
  • 24-09-2017 03:00:00 | 11.20°C | Nordeste |6.00 km/h | 59.00% | 818.80 hPa
  • 24-09-2017 02:00:00 | 11.20°C | Nordeste |7.00 km/h | 60.00% | 818.80 hPa
  • 24-09-2017 01:00:00 | 11.90°C | Noroeste |8.00 km/h | 58.00% | 818.70 hPa